createdAt,value
2018-02-21T00:00:12.442Z,138.30
2018-02-21T00:00:50.023Z,134.00
2018-02-21T00:01:25.733Z,137.10
2018-02-21T00:02:02.522Z,133.50
2018-02-21T00:02:38.062Z,125.30
2018-02-21T00:03:13.656Z,119.70
2018-02-21T00:03:48.941Z,134.20
2018-02-21T00:04:24.239Z,139.10
2018-02-21T00:04:59.599Z,134.70
2018-02-21T00:05:35.208Z,133.90
2018-02-21T00:06:10.873Z,136.80
2018-02-21T00:06:46.453Z,135.50
2018-02-21T00:07:21.750Z,137.90
2018-02-21T00:07:57.431Z,131.30
2018-02-21T00:08:32.648Z,130.50
2018-02-21T00:09:07.945Z,141.30
2018-02-21T00:09:43.521Z,138.60
2018-02-21T00:10:18.844Z,135.70
2018-02-21T00:10:54.216Z,137.50
2018-02-21T00:11:29.503Z,141.00
2018-02-21T00:12:04.612Z,134.50
2018-02-21T00:12:40.029Z,142.80
2018-02-21T00:13:15.819Z,148.60
2018-02-21T00:13:51.410Z,147.80
2018-02-21T00:14:26.909Z,145.70
2018-02-21T00:15:02.511Z,149.10
2018-02-21T00:15:38.992Z,151.50
2018-02-21T00:16:14.594Z,154.30
2018-02-21T00:16:51.097Z,147.90
2018-02-21T00:17:26.489Z,145.80
2018-02-21T00:18:02.033Z,148.10
2018-02-21T00:18:37.319Z,145.00
2018-02-21T00:19:12.635Z,150.50
2018-02-21T00:19:47.807Z,150.80
2018-02-21T00:20:23.098Z,150.80
2018-02-21T00:20:58.598Z,152.20
2018-02-21T00:21:34.311Z,153.60
2018-02-21T00:22:09.307Z,140.70
2018-02-21T00:22:46.614Z,142.30
2018-02-21T00:23:22.001Z,148.70
2018-02-21T00:23:57.468Z,143.60
2018-02-21T00:24:32.791Z,145.40
2018-02-21T00:25:07.971Z,152.10
2018-02-21T00:25:43.652Z,142.90
2018-02-21T00:26:18.934Z,142.40
2018-02-21T00:26:54.195Z,147.60
2018-02-21T00:27:29.490Z,142.00
2018-02-21T00:28:04.715Z,146.50
2018-02-21T00:28:40.273Z,146.10
2018-02-21T00:29:15.992Z,143.80
2018-02-21T00:29:51.277Z,142.00
2018-02-21T00:30:26.471Z,141.50
2018-02-21T00:31:03.560Z,139.80
2018-02-21T00:31:38.877Z,139.30
2018-02-21T00:32:14.242Z,140.50
2018-02-21T00:32:51.843Z,147.10
2018-02-21T00:33:26.825Z,158.80
2018-02-21T00:34:02.222Z,150.00
2018-02-21T00:34:37.607Z,144.80
2018-02-21T00:35:13.131Z,148.40
2018-02-21T00:35:50.022Z,152.40
2018-02-21T00:36:26.709Z,152.30
2018-02-21T00:37:02.289Z,153.20
2018-02-21T00:37:37.571Z,158.30
2018-02-21T00:38:13.212Z,144.10
2018-02-21T00:38:48.495Z,151.80
2018-02-21T00:39:23.795Z,158.10
2018-02-21T00:39:58.885Z,152.90
2018-02-21T00:40:34.288Z,149.60
2018-02-21T00:41:09.797Z,154.00
2018-02-21T00:41:45.473Z,157.80
2018-02-21T00:42:20.773Z,155.40
2018-02-21T00:42:56.793Z,146.40
2018-02-21T00:43:32.404Z,146.80
2018-02-21T00:44:07.613Z,150.00
2018-02-21T00:44:42.567Z,157.10
2018-02-21T00:45:17.878Z,157.90
2018-02-21T00:45:52.969Z,161.10
2018-02-21T00:46:28.479Z,153.80
2018-02-21T00:47:03.981Z,150.20
2018-02-21T00:47:39.362Z,147.70
2018-02-21T00:48:14.682Z,142.30
2018-02-21T00:48:50.926Z,143.00
2018-02-21T00:49:26.029Z,144.80
2018-02-21T00:50:01.539Z,147.20
2018-02-21T00:50:37.319Z,142.70
2018-02-21T00:51:15.139Z,145.40
2018-02-21T00:51:50.310Z,153.00
2018-02-21T00:52:25.917Z,155.80
2018-02-21T00:53:01.344Z,150.90
2018-02-21T00:53:36.954Z,151.20
2018-02-21T00:54:12.277Z,155.40
2018-02-21T00:54:47.355Z,152.10
2018-02-21T00:55:22.574Z,151.40
2018-02-21T00:55:57.654Z,157.60
2018-02-21T00:56:33.201Z,157.80
2018-02-21T00:57:08.602Z,153.70
2018-02-21T00:57:44.083Z,142.90
2018-02-21T00:58:19.529Z,159.40
2018-02-21T00:58:54.821Z,167.70
2018-02-21T00:59:30.331Z,165.40
2018-02-21T01:00:06.024Z,163.30
2018-02-21T01:00:44.622Z,155.70
2018-02-21T01:01:20.037Z,155.40
2018-02-21T01:01:55.333Z,162.70
2018-02-21T01:02:30.632Z,157.20
2018-02-21T01:03:05.982Z,158.50
2018-02-21T01:03:41.508Z,148.90
2018-02-21T01:04:16.726Z,154.90
2018-02-21T01:04:52.331Z,154.80
2018-02-21T01:05:27.815Z,154.00
2018-02-21T01:06:03.115Z,148.10
2018-02-21T01:06:39.388Z,146.10
2018-02-21T01:07:14.492Z,151.20
2018-02-21T01:07:49.998Z,150.70
2018-02-21T01:08:25.118Z,157.90
2018-02-21T01:09:00.694Z,168.30
2018-02-21T01:09:36.696Z,162.80
2018-02-21T01:10:12.104Z,156.60
2018-02-21T01:10:49.174Z,158.90
2018-02-21T01:11:24.771Z,155.50
2018-02-21T01:11:59.758Z,150.70
2018-02-21T01:12:34.952Z,153.40
2018-02-21T01:13:10.480Z,149.20
2018-02-21T01:13:48.249Z,154.70
2018-02-21T01:14:23.473Z,155.40
2018-02-21T01:14:58.964Z,156.60
2018-02-21T01:15:34.060Z,154.40
2018-02-21T01:16:09.363Z,160.30
2018-02-21T01:16:51.166Z,155.70
2018-02-21T01:17:26.766Z,160.90
2018-02-21T01:18:03.204Z,165.60
2018-02-21T01:18:39.921Z,153.80
2018-02-21T01:19:15.299Z,158.20
2018-02-21T01:19:50.777Z,161.40
2018-02-21T01:20:26.145Z,162.10
2018-02-21T01:21:01.756Z,160.30
2018-02-21T01:21:37.684Z,155.10
2018-02-21T01:22:13.287Z,164.60
2018-02-21T01:22:48.697Z,176.10
2018-02-21T01:23:24.240Z,168.00
2018-02-21T01:24:01.232Z,163.50
2018-02-21T01:24:37.054Z,160.70
2018-02-21T01:25:13.868Z,168.40
2018-02-21T01:25:48.977Z,167.00
2018-02-21T01:26:24.100Z,168.10
2018-02-21T01:26:59.500Z,160.20
2018-02-21T01:27:34.697Z,161.90
2018-02-21T01:28:10.033Z,172.40
2018-02-21T01:28:45.682Z,167.90
2018-02-21T01:29:20.998Z,163.30
2018-02-21T01:29:56.316Z,158.30
2018-02-21T01:30:31.730Z,157.60
2018-02-21T01:31:07.068Z,166.50
2018-02-21T01:31:45.260Z,169.40
2018-02-21T01:32:20.658Z,163.60
2018-02-21T01:32:55.974Z,162.10
2018-02-21T01:33:31.327Z,168.50
2018-02-21T01:34:07.062Z,169.20
2018-02-21T01:34:42.463Z,163.00
2018-02-21T01:35:17.601Z,157.10
2018-02-21T01:35:53.808Z,159.00
2018-02-21T01:36:32.244Z,164.80
2018-02-21T01:37:07.687Z,166.30
2018-02-21T01:37:42.797Z,164.90
2018-02-21T01:38:18.101Z,170.30
2018-02-21T01:38:53.395Z,164.80
2018-02-21T01:39:28.805Z,159.60
2018-02-21T01:40:04.216Z,170.90
2018-02-21T01:40:42.172Z,170.40
2018-02-21T01:41:17.588Z,166.30
2018-02-21T01:41:52.803Z,168.80
2018-02-21T01:42:28.351Z,163.60
2018-02-21T01:43:03.781Z,173.10
2018-02-21T01:43:38.883Z,173.10
2018-02-21T01:44:14.304Z,164.40
2018-02-21T01:44:49.691Z,156.70
2018-02-21T01:45:24.993Z,162.50
2018-02-21T01:46:01.527Z,165.20
2018-02-21T01:46:37.343Z,163.50
2018-02-21T01:47:12.557Z,158.90
2018-02-21T01:47:48.758Z,157.50
2018-02-21T01:48:24.288Z,160.60
2018-02-21T01:48:59.703Z,158.20
2018-02-21T01:49:35.734Z,156.10
2018-02-21T01:50:11.229Z,155.80
2018-02-21T01:50:46.857Z,167.40
2018-02-21T01:51:22.433Z,162.80
2018-02-21T01:51:57.627Z,155.00
2018-02-21T01:52:33.234Z,157.80
2018-02-21T01:53:08.462Z,156.50
2018-02-21T01:53:44.078Z,168.40
2018-02-21T01:54:19.485Z,161.50
2018-02-21T01:54:55.188Z,146.90
2018-02-21T01:55:30.340Z,148.80
2018-02-21T01:56:05.662Z,160.90
2018-02-21T01:56:41.059Z,161.00
2018-02-21T01:57:16.890Z,163.00
2018-02-21T01:57:55.870Z,149.00
2018-02-21T01:58:30.990Z,151.70
2018-02-21T01:59:08.746Z,151.90
2018-02-21T01:59:44.228Z,155.90
2018-02-21T02:00:19.469Z,149.40
2018-02-21T02:00:55.247Z,155.10
2018-02-21T02:01:30.777Z,168.40
2018-02-21T02:02:06.139Z,169.80
2018-02-21T02:02:43.302Z,161.10
2018-02-21T02:03:18.633Z,171.60
2018-02-21T02:03:55.256Z,172.70
2018-02-21T02:04:30.702Z,172.70
2018-02-21T02:05:05.959Z,168.10
2018-02-21T02:05:42.961Z,164.40
2018-02-21T02:06:18.492Z,164.00
2018-02-21T02:06:53.933Z,164.60
2018-02-21T02:07:29.373Z,162.90
2018-02-21T02:08:04.792Z,173.20
2018-02-21T02:08:41.286Z,158.90
2018-02-21T02:09:16.680Z,164.00
2018-02-21T02:09:52.111Z,162.00
2018-02-21T02:10:27.531Z,152.10
2018-02-21T02:11:02.941Z,158.50
2018-02-21T02:11:38.551Z,160.30
2018-02-21T02:12:14.095Z,157.60
2018-02-21T02:12:49.303Z,166.20
2018-02-21T02:13:24.502Z,169.30
2018-02-21T02:14:00.216Z,161.90
2018-02-21T02:14:35.887Z,160.10
2018-02-21T02:15:11.249Z,165.10
2018-02-21T02:15:46.735Z,165.50
2018-02-21T02:16:23.256Z,153.40
2018-02-21T02:16:58.658Z,153.80
2018-02-21T02:17:34.200Z,161.80
2018-02-21T02:18:09.520Z,155.20
2018-02-21T02:18:46.218Z,160.00
2018-02-21T02:19:21.545Z,169.80
2018-02-21T02:19:56.951Z,163.40
2018-02-21T02:20:32.340Z,158.20
2018-02-21T02:21:07.533Z,156.60
2018-02-21T02:21:42.913Z,161.00
2018-02-21T02:22:18.430Z,165.60
2018-02-21T02:22:53.623Z,162.00
2018-02-21T02:23:28.931Z,150.30
2018-02-21T02:24:04.359Z,156.90
2018-02-21T02:24:40.258Z,168.70
2018-02-21T02:25:15.687Z,172.50
2018-02-21T02:25:54.894Z,167.40
2018-02-21T02:26:29.980Z,169.60
2018-02-21T02:27:05.491Z,166.10
2018-02-21T02:27:42.405Z,164.40
2018-02-21T02:28:17.511Z,168.60
2018-02-21T02:28:52.692Z,161.70
2018-02-21T02:29:28.233Z,151.70
2018-02-21T02:30:03.460Z,158.50
2018-02-21T02:30:42.288Z,166.90
2018-02-21T02:31:17.848Z,179.10
2018-02-21T02:31:53.121Z,175.50
2018-02-21T02:32:28.241Z,161.30
2018-02-21T02:33:04.954Z,163.10
2018-02-21T02:33:40.932Z,173.30
2018-02-21T02:34:16.544Z,167.40
2018-02-21T02:34:52.079Z,165.10
2018-02-21T02:35:27.508Z,156.70
2018-02-21T02:36:02.938Z,158.60
2018-02-21T02:36:39.287Z,165.90
2018-02-21T02:37:14.415Z,165.60
2018-02-21T02:37:51.218Z,160.00
2018-02-21T02:38:26.760Z,161.20
2018-02-21T02:39:02.478Z,155.50
2018-02-21T02:39:38.062Z,155.00
2018-02-21T02:40:13.491Z,151.30
2018-02-21T02:40:50.917Z,154.10
2018-02-21T02:41:26.597Z,151.20
2018-02-21T02:42:01.936Z,153.10
2018-02-21T02:42:37.154Z,151.90
2018-02-21T02:43:14.074Z,150.20
2018-02-21T02:43:49.482Z,160.50
2018-02-21T02:44:25.234Z,159.90
2018-02-21T02:45:00.743Z,168.90
2018-02-21T02:45:36.372Z,162.80
2018-02-21T02:46:13.786Z,150.50
2018-02-21T02:46:49.112Z,160.40
2018-02-21T02:47:24.748Z,159.60
2018-02-21T02:48:00.065Z,162.60
2018-02-21T02:48:35.492Z,162.30
2018-02-21T02:49:11.225Z,164.90
2018-02-21T02:49:46.512Z,170.00
2018-02-21T02:50:21.950Z,162.50
2018-02-21T02:50:59.993Z,154.40
2018-02-21T02:51:35.659Z,159.00
2018-02-21T02:52:11.456Z,160.40
2018-02-21T02:52:48.340Z,161.70
2018-02-21T02:53:23.766Z,169.50
2018-02-21T02:53:59.142Z,165.20
2018-02-21T02:54:34.971Z,154.30
2018-02-21T02:55:10.277Z,167.00
2018-02-21T02:55:45.709Z,169.70
2018-02-21T02:56:21.136Z,168.20
2018-02-21T02:56:56.748Z,169.40
2018-02-21T02:57:32.306Z,160.90
2018-02-21T02:58:07.618Z,159.20
2018-02-21T02:58:43.100Z,156.40
2018-02-21T02:59:18.500Z,163.20
2018-02-21T02:59:53.709Z,161.70
2018-02-21T03:00:29.559Z,159.50
2018-02-21T03:01:06.983Z,171.50
2018-02-21T03:01:42.693Z,165.40
2018-02-21T03:02:18.027Z,160.50
2018-02-21T03:02:53.363Z,176.30
2018-02-21T03:03:28.675Z,169.40
2018-02-21T03:04:04.007Z,155.70
2018-02-21T03:04:39.789Z,172.70
2018-02-21T03:05:15.930Z,172.30
2018-02-21T03:05:54.131Z,165.10
2018-02-21T03:06:29.358Z,160.00
2018-02-21T03:07:04.403Z,154.40
2018-02-21T03:07:39.814Z,151.30
2018-02-21T03:08:15.347Z,154.20
2018-02-21T03:08:50.685Z,161.50
2018-02-21T03:09:32.917Z,161.80
2018-02-21T03:10:09.256Z,155.40
2018-02-21T03:10:47.640Z,162.10
2018-02-21T03:11:23.866Z,165.90
2018-02-21T03:12:01.245Z,169.50
2018-02-21T03:12:36.474Z,168.10
2018-02-21T03:13:12.583Z,165.90
2018-02-21T03:13:48.036Z,167.20
2018-02-21T03:14:23.562Z,165.20
2018-02-21T03:14:59.089Z,160.30
2018-02-21T03:15:34.304Z,156.00
2018-02-21T03:16:09.718Z,160.60
2018-02-21T03:16:45.000Z,165.80
2018-02-21T03:17:20.123Z,168.80
2018-02-21T03:17:55.919Z,169.10
2018-02-21T03:18:30.975Z,175.00
2018-02-21T03:19:06.227Z,174.10
2018-02-21T03:19:42.828Z,159.00
2018-02-21T03:20:18.461Z,161.80
2018-02-21T03:20:57.173Z,161.40
2018-02-21T03:21:32.486Z,166.90
2018-02-21T03:22:07.912Z,159.40
2018-02-21T03:22:43.241Z,159.10
2018-02-21T03:23:18.551Z,162.00
2018-02-21T03:23:55.866Z,165.20
2018-02-21T03:24:31.561Z,168.60
2018-02-21T03:25:06.798Z,167.90
2018-02-21T03:25:45.911Z,166.90
2018-02-21T03:26:21.123Z,163.60
2018-02-21T03:26:57.214Z,155.80
2018-02-21T03:27:32.430Z,155.60
2018-02-21T03:28:07.537Z,153.50
2018-02-21T03:28:43.344Z,172.40
2018-02-21T03:29:18.452Z,170.00
2018-02-21T03:29:53.664Z,150.30
2018-02-21T03:30:28.691Z,146.70
2018-02-21T03:31:04.030Z,155.00
2018-02-21T03:31:39.452Z,168.40
2018-02-21T03:32:14.872Z,163.40
2018-02-21T03:32:52.616Z,149.50
2018-02-21T03:33:27.831Z,160.10
2018-02-21T03:34:03.652Z,159.90
2018-02-21T03:34:39.098Z,167.70
2018-02-21T03:35:14.711Z,171.30
2018-02-21T03:35:50.200Z,180.50
2018-02-21T03:36:25.550Z,184.60
2018-02-21T03:37:01.054Z,168.40
2018-02-21T03:37:36.765Z,166.60
2018-02-21T03:38:12.183Z,166.40
2018-02-21T03:38:47.872Z,174.30
2018-02-21T03:39:23.622Z,177.10
2018-02-21T03:39:59.004Z,162.30
2018-02-21T03:40:34.243Z,158.60
2018-02-21T03:41:09.658Z,166.50
2018-02-21T03:41:46.669Z,157.30
2018-02-21T03:42:22.207Z,160.60
2018-02-21T03:42:58.622Z,169.50
2018-02-21T03:43:33.950Z,166.50
2018-02-21T03:44:09.404Z,159.20
2018-02-21T03:44:44.896Z,155.90
2018-02-21T03:45:20.540Z,162.30
2018-02-21T03:45:55.954Z,165.80
2018-02-21T03:46:31.383Z,165.00
2018-02-21T03:47:06.917Z,165.20
2018-02-21T03:47:42.318Z,166.00
2018-02-21T03:48:17.618Z,164.20
2018-02-21T03:48:53.291Z,159.10
2018-02-21T03:49:28.506Z,148.70
2018-02-21T03:50:03.578Z,165.80
2018-02-21T03:50:40.578Z,157.80
2018-02-21T03:51:15.891Z,158.90
2018-02-21T03:51:51.117Z,165.30
2018-02-21T03:52:26.347Z,166.40
2018-02-21T03:53:02.177Z,163.30
2018-02-21T03:53:37.914Z,161.50
2018-02-21T03:54:13.125Z,162.30
2018-02-21T03:54:48.545Z,150.70
2018-02-21T03:55:24.061Z,153.30
2018-02-21T03:56:03.089Z,164.10
2018-02-21T03:56:38.337Z,161.50
2018-02-21T03:57:13.739Z,157.20
2018-02-21T03:57:50.790Z,162.40
2018-02-21T03:58:26.083Z,158.20
2018-02-21T03:59:01.664Z,151.20
2018-02-21T03:59:37.269Z,151.90
2018-02-21T04:00:12.583Z,153.60
2018-02-21T04:00:54.521Z,157.20
2018-02-21T04:01:31.425Z,150.60
2018-02-21T04:02:06.657Z,146.80
2018-02-21T04:02:41.661Z,140.70
2018-02-21T04:03:20.080Z,140.80
2018-02-21T04:03:56.979Z,151.70
2018-02-21T04:04:32.393Z,146.50
2018-02-21T04:05:07.662Z,140.10
2018-02-21T04:05:43.272Z,151.10
2018-02-21T04:06:18.520Z,154.40
2018-02-21T04:06:54.001Z,150.90
2018-02-21T04:07:29.339Z,149.70
2018-02-21T04:08:04.760Z,153.30
2018-02-21T04:08:40.479Z,160.60
2018-02-21T04:09:15.770Z,151.30
2018-02-21T04:09:51.092Z,157.00
2018-02-21T04:10:26.348Z,166.80
2018-02-21T04:11:01.730Z,160.60
2018-02-21T04:11:37.167Z,152.10
2018-02-21T04:12:12.493Z,153.60
2018-02-21T04:12:47.931Z,150.70
2018-02-21T04:13:23.361Z,150.50
2018-02-21T04:13:58.955Z,150.90
2018-02-21T04:14:36.672Z,148.00
2018-02-21T04:15:12.381Z,155.40
2018-02-21T04:15:48.105Z,152.60
2018-02-21T04:16:23.958Z,150.90
2018-02-21T04:16:59.075Z,155.00
2018-02-21T04:17:34.396Z,149.80
2018-02-21T04:18:09.835Z,151.70
2018-02-21T04:18:45.140Z,157.10
2018-02-21T04:19:20.380Z,157.70
2018-02-21T04:19:55.863Z,152.60
2018-02-21T04:20:31.294Z,141.50
2018-02-21T04:21:06.713Z,146.10
2018-02-21T04:21:43.935Z,156.10
2018-02-21T04:22:19.459Z,159.10
2018-02-21T04:22:54.656Z,161.40
2018-02-21T04:23:30.193Z,154.70
2018-02-21T04:24:05.991Z,144.30
2018-02-21T04:24:41.425Z,148.00
2018-02-21T04:25:17.619Z,155.20
2018-02-21T04:25:56.225Z,156.50
2018-02-21T04:26:31.673Z,162.30
2018-02-21T04:27:07.371Z,163.30
2018-02-21T04:27:43.187Z,164.90
2018-02-21T04:28:18.422Z,160.50
2018-02-21T04:28:54.020Z,150.80
2018-02-21T04:29:29.356Z,157.80
2018-02-21T04:30:04.340Z,158.70
2018-02-21T04:30:41.458Z,151.50
2018-02-21T04:31:17.064Z,159.00
2018-02-21T04:31:53.415Z,144.90
2018-02-21T04:32:28.872Z,151.10
2018-02-21T04:33:05.068Z,153.10
2018-02-21T04:33:41.631Z,151.40
2018-02-21T04:34:17.013Z,147.80
2018-02-21T04:34:52.434Z,150.40
2018-02-21T04:35:27.879Z,144.90
2018-02-21T04:36:04.191Z,145.00
2018-02-21T04:36:39.912Z,158.80
2018-02-21T04:37:15.339Z,157.90
2018-02-21T04:37:50.687Z,151.70
2018-02-21T04:38:25.911Z,153.20
2018-02-21T04:39:01.152Z,149.90
2018-02-21T04:39:36.803Z,155.60
2018-02-21T04:40:12.085Z,160.50
2018-02-21T04:40:48.640Z,163.80
2018-02-21T04:41:24.685Z,164.10
2018-02-21T04:42:00.263Z,165.80
2018-02-21T04:42:36.001Z,172.80
2018-02-21T04:43:11.418Z,172.30
2018-02-21T04:43:47.137Z,162.20
2018-02-21T04:44:23.196Z,173.90
2018-02-21T04:45:01.799Z,161.50
2018-02-21T04:45:38.810Z,162.40
2018-02-21T04:46:14.306Z,175.90
2018-02-21T04:46:49.722Z,175.80
2018-02-21T04:47:25.129Z,173.20
2018-02-21T04:48:01.400Z,170.40
2018-02-21T04:48:36.741Z,163.50
2018-02-21T04:49:12.228Z,159.90
2018-02-21T04:49:48.968Z,157.40
2018-02-21T04:50:24.182Z,156.30
2018-02-21T04:50:59.369Z,150.20
2018-02-21T04:51:34.807Z,154.30
2018-02-21T04:52:10.210Z,161.10
2018-02-21T04:52:47.958Z,173.00
2018-02-21T04:53:23.407Z,171.80
2018-02-21T04:53:59.010Z,169.70
2018-02-21T04:54:34.443Z,172.30
2018-02-21T04:55:09.759Z,164.10
2018-02-21T04:55:45.260Z,169.50
2018-02-21T04:56:20.980Z,171.00
2018-02-21T04:56:56.279Z,166.20
2018-02-21T04:57:31.804Z,154.90
2018-02-21T04:58:07.330Z,161.70
2018-02-21T04:58:44.028Z,165.60
2018-02-21T04:59:19.254Z,159.30
2018-02-21T04:59:54.591Z,159.20
2018-02-21T05:00:29.951Z,160.80
2018-02-21T05:01:05.344Z,157.50
2018-02-21T05:01:40.671Z,150.00
2018-02-21T05:02:16.161Z,144.60
2018-02-21T05:02:51.395Z,146.70
2018-02-21T05:03:26.698Z,146.40
2018-02-21T05:04:02.702Z,146.20
2018-02-21T05:04:38.108Z,150.70
2018-02-21T05:05:13.720Z,160.40
2018-02-21T05:05:49.200Z,151.00
2018-02-21T05:06:25.511Z,157.60
2018-02-21T05:07:00.895Z,162.10
2018-02-21T05:07:36.703Z,166.10
2018-02-21T05:08:11.895Z,168.00
2018-02-21T05:08:47.122Z,163.40
2018-02-21T05:09:22.532Z,154.80
2018-02-21T05:09:57.844Z,162.30
2018-02-21T05:10:33.294Z,160.70
2018-02-21T05:11:08.832Z,165.50
2018-02-21T05:11:44.233Z,166.20
2018-02-21T05:12:19.557Z,164.00
2018-02-21T05:12:54.745Z,159.40
2018-02-21T05:13:30.289Z,164.70
2018-02-21T05:14:06.188Z,163.40
2018-02-21T05:14:41.197Z,164.90
2018-02-21T05:15:16.704Z,169.60
2018-02-21T05:15:53.507Z,168.40
2018-02-21T05:16:29.057Z,176.40
2018-02-21T05:17:04.339Z,159.70
2018-02-21T05:17:39.773Z,156.60
2018-02-21T05:18:15.064Z,161.60
2018-02-21T05:18:50.290Z,155.80
2018-02-21T05:19:25.516Z,162.20
2018-02-21T05:20:01.034Z,168.40
2018-02-21T05:20:37.046Z,160.90
2018-02-21T05:21:12.457Z,167.30
2018-02-21T05:21:47.818Z,153.20
2018-02-21T05:22:23.141Z,158.20
2018-02-21T05:22:58.777Z,159.20
2018-02-21T05:23:34.412Z,158.70
2018-02-21T05:24:09.684Z,159.90
2018-02-21T05:24:46.001Z,168.50
2018-02-21T05:25:21.311Z,164.70
2018-02-21T05:25:58.690Z,158.40
2018-02-21T05:26:34.088Z,157.30
2018-02-21T05:27:10.700Z,160.40
2018-02-21T05:27:46.030Z,171.70
2018-02-21T05:28:21.160Z,179.60
2018-02-21T05:28:57.837Z,174.50
2018-02-21T05:29:32.995Z,160.20
2018-02-21T05:30:08.294Z,160.50
2018-02-21T05:30:44.853Z,164.90
2018-02-21T05:31:20.271Z,161.10
2018-02-21T05:31:55.888Z,156.20
2018-02-21T05:32:31.465Z,159.80
2018-02-21T05:33:06.755Z,165.10
2018-02-21T05:33:42.188Z,167.10
2018-02-21T05:34:17.568Z,164.80
2018-02-21T05:34:52.987Z,160.60
2018-02-21T05:35:28.501Z,166.60
2018-02-21T05:36:04.722Z,161.60
2018-02-21T05:36:40.056Z,158.10
2018-02-21T05:37:15.477Z,165.30
2018-02-21T05:37:50.750Z,162.20
2018-02-21T05:38:26.090Z,154.00
2018-02-21T05:39:01.181Z,161.10
2018-02-21T05:39:36.408Z,160.90
2018-02-21T05:40:14.201Z,153.60
2018-02-21T05:40:50.900Z,163.30
2018-02-21T05:41:26.426Z,164.90
2018-02-21T05:42:01.640Z,160.60
2018-02-21T05:42:37.160Z,161.80
2018-02-21T05:43:12.290Z,166.00
2018-02-21T05:43:47.717Z,157.30
2018-02-21T05:44:25.726Z,159.00
2018-02-21T05:45:01.024Z,159.30
2018-02-21T05:45:36.461Z,153.20
2018-02-21T05:46:11.550Z,152.50
2018-02-21T05:46:46.855Z,152.10
2018-02-21T05:47:24.054Z,165.30
2018-02-21T05:48:03.443Z,162.70
2018-02-21T05:48:38.830Z,151.80
2018-02-21T05:49:14.110Z,159.30
2018-02-21T05:49:51.299Z,159.40
2018-02-21T05:50:26.627Z,146.10
2018-02-21T05:51:02.231Z,151.90
2018-02-21T05:51:37.633Z,154.30
2018-02-21T05:52:13.228Z,154.90
2018-02-21T05:52:50.246Z,142.10
2018-02-21T05:53:25.646Z,145.40
2018-02-21T05:54:00.959Z,146.80
2018-02-21T05:54:37.676Z,146.40
2018-02-21T05:55:13.171Z,144.00
2018-02-21T05:55:48.495Z,146.30
2018-02-21T05:56:24.020Z,145.60
2018-02-21T05:56:59.440Z,146.10
2018-02-21T05:57:34.713Z,142.60
2018-02-21T05:58:10.130Z,139.40
2018-02-21T05:58:46.858Z,139.20
2018-02-21T05:59:22.200Z,150.40
2018-02-21T05:59:57.400Z,147.20
2018-02-21T06:00:32.827Z,138.40
2018-02-21T06:01:08.131Z,137.60
2018-02-21T06:01:43.745Z,152.20
2018-02-21T06:02:19.152Z,141.50
2018-02-21T06:02:54.824Z,144.00
2018-02-21T06:03:30.232Z,152.80
2018-02-21T06:04:06.160Z,144.30
2018-02-21T06:04:41.644Z,140.90
2018-02-21T06:05:16.840Z,158.20
2018-02-21T06:05:52.285Z,152.80
2018-02-21T06:06:27.912Z,152.00
2018-02-21T06:07:03.296Z,149.30
2018-02-21T06:07:39.588Z,146.50
2018-02-21T06:08:14.788Z,148.50
2018-02-21T06:08:50.296Z,145.70
2018-02-21T06:09:25.798Z,143.60
2018-02-21T06:10:01.323Z,149.70
2018-02-21T06:10:37.392Z,153.10
2018-02-21T06:11:12.741Z,144.20
2018-02-21T06:11:51.876Z,140.80
2018-02-21T06:12:27.637Z,149.40
2018-02-21T06:13:06.180Z,154.20
2018-02-21T06:13:41.415Z,150.00
2018-02-21T06:16:55.999Z,146.70
2018-02-21T06:17:31.426Z,135.10
2018-02-21T06:18:11.228Z,142.50
2018-02-21T06:20:49.015Z,145.30
2018-02-21T06:21:24.701Z,147.20
2018-02-21T06:21:59.989Z,140.00
2018-02-21T06:22:35.115Z,142.80
2018-02-21T06:23:11.007Z,146.10
2018-02-21T06:23:46.318Z,144.70
2018-02-21T06:24:21.648Z,142.90
2018-02-21T06:24:58.864Z,146.50
2018-02-21T06:25:38.451Z,146.00
2018-02-21T06:26:14.072Z,145.70
2018-02-21T06:26:49.692Z,145.80
2018-02-21T06:27:24.803Z,156.50
2018-02-21T06:28:00.062Z,149.30
2018-02-21T06:28:35.766Z,144.30
2018-02-21T06:29:10.951Z,148.20
2018-02-21T06:29:46.475Z,145.80
2018-02-21T06:30:21.905Z,145.90
2018-02-21T06:30:58.517Z,149.50
2018-02-21T06:31:34.281Z,143.40
2018-02-21T06:32:09.758Z,134.30
2018-02-21T06:32:44.958Z,148.90
2018-02-21T06:33:20.376Z,156.30
2018-02-21T06:33:55.470Z,149.70
2018-02-21T06:34:31.188Z,140.90
2018-02-21T06:35:06.684Z,146.10
2018-02-21T06:35:42.747Z,158.80
2018-02-21T06:36:17.960Z,153.10
2018-02-21T06:36:53.286Z,152.70
2018-02-21T06:37:28.585Z,156.20
2018-02-21T06:38:04.096Z,150.30
2018-02-21T06:38:39.482Z,165.60
2018-02-21T06:39:14.992Z,160.20
2018-02-21T06:39:50.411Z,140.40
2018-02-21T06:40:26.141Z,134.20
2018-02-21T06:41:01.563Z,134.90
2018-02-21T06:41:36.932Z,136.80
2018-02-21T06:42:12.545Z,146.70
2018-02-21T06:42:48.285Z,146.20
2018-02-21T06:43:23.944Z,157.10
2018-02-21T06:43:59.000Z,154.80
2018-02-21T06:44:34.550Z,150.80
2018-02-21T06:45:13.275Z,147.30
2018-02-21T06:45:50.147Z,138.30
2018-02-21T06:46:25.493Z,144.00
2018-02-21T06:47:00.945Z,146.90
2018-02-21T06:47:36.442Z,145.90
2018-02-21T06:48:11.823Z,145.30
2018-02-21T06:48:47.265Z,149.30
2018-02-21T06:49:22.442Z,165.60
2018-02-21T06:49:58.131Z,156.50
2018-02-21T06:50:33.645Z,148.20
2018-02-21T06:51:09.346Z,158.30
2018-02-21T06:51:45.141Z,162.90
2018-02-21T06:52:20.805Z,156.60
2018-02-21T06:52:56.288Z,143.20
2018-02-21T06:53:31.726Z,149.80
2018-02-21T06:54:07.060Z,152.60
2018-02-21T06:54:42.384Z,152.30
2018-02-21T06:55:18.044Z,158.10
2018-02-21T06:55:53.291Z,152.60
2018-02-21T06:56:28.947Z,152.50
2018-02-21T06:57:04.672Z,157.10
2018-02-21T06:57:41.411Z,147.50
2018-02-21T06:58:17.020Z,150.80
2018-02-21T06:58:52.520Z,157.60
2018-02-21T06:59:27.972Z,160.90
2018-02-21T07:00:03.532Z,151.80
2018-02-21T07:00:41.164Z,154.10
2018-02-21T07:01:16.761Z,153.80
2018-02-21T07:01:52.291Z,152.60
2018-02-21T07:02:27.766Z,150.10
2018-02-21T07:03:03.290Z,145.90
2018-02-21T07:03:38.625Z,147.50
2018-02-21T07:04:13.931Z,143.60
2018-02-21T07:04:49.587Z,148.50
2018-02-21T07:05:25.264Z,145.60
2018-02-21T07:06:00.587Z,147.80
2018-02-21T07:06:36.407Z,138.70
2018-02-21T07:07:11.804Z,134.30
2018-02-21T07:07:47.202Z,135.30
2018-02-21T07:08:22.825Z,133.60
2018-02-21T07:08:57.972Z,139.20
2018-02-21T07:09:33.077Z,131.10
2018-02-21T07:10:08.328Z,130.00
2018-02-21T07:10:44.294Z,131.70
2018-02-21T07:11:19.635Z,124.00
2018-02-21T07:11:55.147Z,132.10
2018-02-21T07:12:30.902Z,131.20
2018-02-21T07:13:06.237Z,125.30
2018-02-21T07:13:41.735Z,124.20
2018-02-21T07:14:17.221Z,122.20
2018-02-21T07:14:53.159Z,117.70
2018-02-21T07:15:28.929Z,121.70
2018-02-21T07:16:04.178Z,116.50
2018-02-21T07:16:39.617Z,110.30
2018-02-21T07:17:15.002Z,114.00
2018-02-21T07:17:50.446Z,115.20
2018-02-21T07:18:25.934Z,111.60
2018-02-21T07:19:01.345Z,106.60
2018-02-21T07:19:38.749Z,106.80
2018-02-21T07:20:14.183Z,113.60
2018-02-21T07:20:51.985Z,110.10
2018-02-21T07:21:27.408Z,107.60
2018-02-21T07:22:02.816Z,118.80
2018-02-21T07:22:39.374Z,119.60
2018-02-21T07:23:14.785Z,109.60
2018-02-21T07:23:49.868Z,109.50
2018-02-21T07:24:25.504Z,110.50
2018-02-21T07:25:01.017Z,110.60
2018-02-21T07:25:36.368Z,109.30
2018-02-21T07:26:11.846Z,109.20
2018-02-21T07:26:47.387Z,105.10
2018-02-21T07:27:22.710Z,105.70
2018-02-21T07:27:58.108Z,107.40
2018-02-21T07:28:33.662Z,105.90
2018-02-21T07:29:09.167Z,104.10
2018-02-21T07:29:45.425Z,103.10
2018-02-21T07:30:20.777Z,100.90